Aviation Digital Data Service (ADDS)

Output produced by METARs form (0946 UTC 23 July 2019)
found at http://www.aviationweather.gov/metar/data/
 
Forecast for: GMTT (TANGIER/BOUKHALF, MA)
Text: TAF GMTT 230500Z 2306/2412 VRB02KT 4000 BR FEW003 SCT011 BKN016
Forecast period: 0600 to 0700 UTC 23 July 2019
Forecast type: FROM: standard forecast or significant change
Winds: variable direction winds at 2 MPH (2 knots; 1.0 m/s)
Visibility: 2.49 miles (4.01 km)
Ceiling: 1600 feet AGL
Clouds: few clouds at 300 feet AGL
scattered clouds at 1100 feet AGL
broken clouds at 1600 feet AGL
Weather: BR  (mist)
Text: BECMG 2307/2309 10010KT 8000 NSW
Forecast period: 0700 UTC 23 July 2019 to 1200 UTC 24 July 2019
Forecast type: BECOMING: Conditions expected to become as follows by 0900 UTC 23 July 2019
Winds: from the E (100 degrees) at 12 MPH (10 knots; 5.1 m/s)
Visibility: 5 miles (8 km)
Ceiling: 1600 feet AGL
Clouds: few clouds at 300 feet AGL
scattered clouds at 1100 feet AGL
broken clouds at 1600 feet AGL
Weather: NSW  (no significant weather)
Text: TEMPO 2400/2406 3000 BR
Forecast period: 0000 to 0600 UTC 24 July 2019
Forecast type: TEMPORARY: The following changes expected for less than half the time period
Visibility: 1.86 miles (2.99 km)
Ceiling: unknown
Clouds: missing
Weather: BR  (mist)